createdAt,value
2022-11-15T00:00:31.601Z,13.43
2022-11-15T00:02:58.035Z,13.63
2022-11-15T00:05:24.573Z,14.90
2022-11-15T00:07:55.986Z,13.90
2022-11-15T00:10:22.768Z,13.40
2022-11-15T00:12:49.175Z,12.97
2022-11-15T00:15:15.737Z,15.00
2022-11-15T00:17:42.131Z,11.97
2022-11-15T00:20:09.137Z,14.30
2022-11-15T00:22:35.547Z,14.17
2022-11-15T00:25:01.938Z,14.10
2022-11-15T00:27:28.429Z,12.87
2022-11-15T00:29:54.943Z,12.93
2022-11-15T00:32:21.426Z,11.20
2022-11-15T00:34:47.826Z,13.57
2022-11-15T00:37:14.268Z,11.77
2022-11-15T00:39:40.710Z,11.70
2022-11-15T00:42:07.108Z,11.80
2022-11-15T00:44:33.490Z,12.07
2022-11-15T00:46:59.894Z,13.63
2022-11-15T00:49:26.238Z,11.43
2022-11-15T00:51:52.634Z,11.13
2022-11-15T00:54:19.062Z,11.03
2022-11-15T00:56:45.496Z,11.53
2022-11-15T00:59:11.926Z,12.60
2022-11-15T01:01:38.381Z,11.17
2022-11-15T01:04:04.964Z,12.13
2022-11-15T01:06:31.404Z,10.40
2022-11-15T01:08:57.817Z,12.33
2022-11-15T01:11:24.244Z,11.23
2022-11-15T01:13:50.721Z,10.63
2022-11-15T01:16:19.493Z,15.50
2022-11-15T01:18:46.812Z,12.90
2022-11-15T01:21:19.269Z,13.70
2022-11-15T01:23:46.022Z,14.93
2022-11-15T01:26:14.994Z,10.97
2022-11-15T01:28:42.844Z,10.87
2022-11-15T01:31:21.003Z,12.97
2022-11-15T01:33:48.703Z,13.70
2022-11-15T01:36:18.202Z,14.30
2022-11-15T01:38:45.012Z,12.13
2022-11-15T01:41:20.544Z,11.93
2022-11-15T01:43:50.547Z,13.13
2022-11-15T01:46:22.754Z,13.10
2022-11-15T01:48:52.478Z,9.87
2022-11-15T01:51:20.931Z,12.40
2022-11-15T01:53:52.285Z,11.13
2022-11-15T01:56:24.026Z,9.50
2022-11-15T01:58:52.432Z,9.30
2022-11-15T02:04:00.766Z,10.53
2022-11-15T02:06:27.259Z,10.57
2022-11-15T02:08:55.152Z,10.50
2022-11-15T02:11:21.619Z,10.50
2022-11-15T02:13:48.320Z,12.50
2022-11-15T02:16:33.251Z,11.80
2022-11-15T02:19:10.448Z,10.63
2022-11-15T02:21:45.660Z,11.17
2022-11-15T02:24:30.153Z,10.47
2022-11-15T02:27:21.466Z,11.97
2022-11-15T02:30:06.570Z,9.07
2022-11-15T02:32:49.360Z,9.50
2022-11-15T02:35:48.664Z,10.23
2022-11-15T02:38:46.403Z,9.63
2022-11-15T02:41:29.211Z,10.63
2022-11-15T02:44:03.355Z,9.90
2022-11-15T02:47:05.949Z,11.50
2022-11-15T02:49:34.908Z,11.40
2022-11-15T02:52:01.621Z,10.27
2022-11-15T02:54:32.170Z,9.17
2022-11-15T02:57:42.673Z,10.40
2022-11-15T03:00:16.301Z,9.10
2022-11-15T03:02:42.634Z,9.57
2022-11-15T03:05:24.718Z,12.60
2022-11-15T03:08:02.267Z,11.03
2022-11-15T03:11:05.223Z,10.77
2022-11-15T03:13:59.617Z,9.57
2022-11-15T03:16:35.233Z,11.57
2022-11-15T03:19:14.785Z,12.53
2022-11-15T03:21:42.028Z,10.07
2022-11-15T03:24:09.620Z,9.47
2022-11-15T03:26:40.166Z,11.23
2022-11-15T03:29:16.103Z,9.67
2022-11-15T03:31:51.132Z,10.77
2022-11-15T03:34:33.111Z,9.47
2022-11-15T03:36:59.598Z,10.07
2022-11-15T03:39:27.181Z,10.13
2022-11-15T03:41:56.360Z,9.80
2022-11-15T03:44:37.852Z,11.07
2022-11-15T03:47:26.117Z,9.60
2022-11-15T03:49:59.359Z,9.57
2022-11-15T03:52:25.810Z,9.00
2022-11-15T03:54:55.765Z,8.47
2022-11-15T03:57:22.427Z,8.80
2022-11-15T03:59:48.974Z,9.30
2022-11-15T04:02:15.410Z,8.70
2022-11-15T04:04:41.839Z,7.80
2022-11-15T04:07:08.315Z,8.17
2022-11-15T04:09:54.875Z,7.30
2022-11-15T04:12:31.678Z,6.60
2022-11-15T04:15:10.124Z,5.00
2022-11-15T04:17:41.488Z,5.43
2022-11-15T04:20:32.949Z,6.10
2022-11-15T04:23:19.857Z,6.60
2022-11-15T04:25:48.419Z,9.57
2022-11-15T04:28:14.852Z,6.80
2022-11-15T04:30:41.319Z,6.30
2022-11-15T04:33:07.763Z,5.40
2022-11-15T04:35:34.278Z,5.70
2022-11-15T04:38:01.954Z,6.17
2022-11-15T04:40:28.386Z,5.97
2022-11-15T04:42:57.194Z,9.10
2022-11-15T04:45:28.842Z,5.30
2022-11-15T04:47:55.260Z,8.03
2022-11-15T04:50:21.710Z,6.70
2022-11-15T04:52:53.444Z,5.70
2022-11-15T04:55:19.880Z,5.70
2022-11-15T04:57:46.487Z,5.63
2022-11-15T05:00:15.782Z,6.90
2022-11-15T05:03:00.603Z,5.27
2022-11-15T05:05:27.030Z,6.23
2022-11-15T05:07:53.515Z,6.70
2022-11-15T05:10:19.903Z,5.80
2022-11-15T05:12:47.861Z,5.40
2022-11-15T05:15:14.347Z,6.87
2022-11-15T05:17:40.730Z,5.57
2022-11-15T05:20:07.782Z,4.50
2022-11-15T05:22:34.231Z,6.80
2022-11-15T05:25:00.685Z,6.10
2022-11-15T05:27:27.168Z,5.93
2022-11-15T05:29:53.607Z,5.00
2022-11-15T05:32:19.975Z,5.90
2022-11-15T05:34:46.681Z,5.00
2022-11-15T05:37:14.965Z,5.00
2022-11-15T05:39:41.427Z,5.10
2022-11-15T05:42:07.777Z,4.70
2022-11-15T05:44:36.934Z,4.87
2022-11-15T05:47:06.447Z,6.53
2022-11-15T05:49:37.146Z,3.97
2022-11-15T05:52:08.415Z,4.23
2022-11-15T05:54:36.806Z,4.47
2022-11-15T05:57:04.680Z,5.43
2022-11-15T05:59:33.163Z,4.47
2022-11-15T06:02:00.170Z,3.70
2022-11-15T06:04:26.834Z,3.50
2022-11-15T06:06:53.320Z,5.43
2022-11-15T06:09:19.801Z,5.40
2022-11-15T06:11:46.253Z,3.83
2022-11-15T06:14:12.682Z,5.03
2022-11-15T06:16:39.215Z,4.97
2022-11-15T06:19:07.186Z,5.07
2022-11-15T06:21:33.822Z,4.93
2022-11-15T06:24:00.203Z,5.80
2022-11-15T06:26:26.585Z,7.77
2022-11-15T06:28:53.058Z,7.67
2022-11-15T06:31:19.475Z,8.17
2022-11-15T06:33:45.824Z,7.50
2022-11-15T06:36:17.486Z,5.00
2022-11-15T06:38:45.832Z,5.63
2022-11-15T06:41:13.832Z,6.27
2022-11-15T06:43:41.243Z,4.00
2022-11-15T06:46:08.123Z,3.67
2022-11-15T06:48:35.225Z,6.53
2022-11-15T06:51:04.161Z,4.77
2022-11-15T06:53:31.463Z,5.17
2022-11-15T06:56:03.126Z,5.60
2022-11-15T06:58:29.820Z,4.30
2022-11-15T07:01:00.825Z,4.23
2022-11-15T07:03:27.885Z,5.20
2022-11-15T07:05:55.693Z,6.07
2022-11-15T07:08:23.522Z,4.40
2022-11-15T07:10:50.209Z,3.47
2022-11-15T07:13:16.590Z,4.30
2022-11-15T07:15:43.046Z,5.70
2022-11-15T07:18:09.450Z,4.23
2022-11-15T07:20:36.209Z,5.40
2022-11-15T07:23:04.361Z,4.73
2022-11-15T07:25:31.341Z,4.20
2022-11-15T07:27:59.128Z,6.53
2022-11-15T07:30:26.686Z,4.40
2022-11-15T07:32:57.390Z,5.43
2022-11-15T07:35:24.918Z,4.70
2022-11-15T07:38:04.260Z,5.47
2022-11-15T07:40:32.687Z,5.17
2022-11-15T07:43:02.867Z,5.47
2022-11-15T07:45:29.763Z,5.53
2022-11-15T07:47:56.932Z,5.57
2022-11-15T07:50:25.174Z,6.53
2022-11-15T07:52:59.338Z,6.00
2022-11-15T07:55:28.183Z,6.53
2022-11-15T07:58:01.229Z,4.70
2022-11-15T08:00:27.709Z,7.97
2022-11-15T08:02:54.205Z,5.00
2022-11-15T08:05:20.706Z,4.47
2022-11-15T08:07:47.105Z,4.43
2022-11-15T08:10:14.867Z,5.03
2022-11-15T08:12:41.310Z,4.77
2022-11-15T08:15:07.856Z,6.80
2022-11-15T08:17:34.907Z,6.17
2022-11-15T08:20:01.336Z,3.73
2022-11-15T08:22:28.063Z,4.70
2022-11-15T08:24:54.533Z,3.30
2022-11-15T08:27:21.035Z,6.27
2022-11-15T08:29:49.345Z,3.83
2022-11-15T08:32:15.738Z,3.93
2022-11-15T08:34:42.144Z,2.40
2022-11-15T08:37:08.532Z,4.30
2022-11-15T08:39:34.943Z,4.80
2022-11-15T08:42:01.431Z,4.97
2022-11-15T08:44:27.848Z,4.83
2022-11-15T08:46:54.285Z,2.60
2022-11-15T08:49:20.689Z,3.43
2022-11-15T08:51:47.105Z,3.97
2022-11-15T08:54:13.469Z,4.57
2022-11-15T08:56:41.292Z,5.40
2022-11-15T08:59:07.756Z,6.33
2022-11-15T09:01:34.343Z,2.70
2022-11-15T09:04:00.826Z,5.90
2022-11-15T09:06:27.246Z,2.50
2022-11-15T09:08:53.927Z,3.10
2022-11-15T09:11:22.280Z,6.37
2022-11-15T09:13:48.688Z,3.57
2022-11-15T09:16:16.196Z,3.23
2022-11-15T09:18:42.708Z,4.30
2022-11-15T09:21:10.171Z,2.47
2022-11-15T09:23:36.744Z,2.17
2022-11-15T09:26:05.369Z,5.20
2022-11-15T09:28:33.930Z,2.20
2022-11-15T09:31:06.243Z,3.50
2022-11-15T09:33:33.129Z,2.83
2022-11-15T09:36:08.380Z,4.00
2022-11-15T09:38:35.938Z,2.93
2022-11-15T09:41:14.460Z,3.27
2022-11-15T09:43:59.501Z,5.10
2022-11-15T09:46:56.260Z,6.10
2022-11-15T09:49:23.488Z,6.57
2022-11-15T09:51:52.382Z,11.53
2022-11-15T09:57:30.817Z,5.73
2022-11-15T10:00:38.734Z,4.53
2022-11-15T10:03:04.018Z,2.30
2022-11-15T10:05:31.588Z,3.90
2022-11-15T10:08:12.472Z,2.60
2022-11-15T10:10:49.348Z,3.00
2022-11-15T10:13:26.463Z,2.60
2022-11-15T10:15:55.491Z,3.10
2022-11-15T10:18:56.582Z,2.47
2022-11-15T10:21:33.712Z,3.20
2022-11-15T10:24:00.302Z,2.73
2022-11-15T10:26:27.376Z,2.57
2022-11-15T10:28:53.738Z,1.40
2022-11-15T10:31:28.878Z,4.33
2022-11-15T10:34:15.139Z,2.77
2022-11-15T10:36:55.366Z,2.57
2022-11-15T10:39:21.803Z,4.87
2022-11-15T10:41:48.337Z,2.50
2022-11-15T10:44:17.485Z,3.40
2022-11-15T10:47:01.915Z,2.83
2022-11-15T10:49:30.480Z,4.20
2022-11-15T10:52:05.604Z,4.20
2022-11-15T10:54:36.975Z,3.13
2022-11-15T10:57:11.632Z,2.97
2022-11-15T10:59:39.563Z,3.40
2022-11-15T11:02:32.620Z,2.53
2022-11-15T11:04:59.945Z,3.60
2022-11-15T11:07:29.951Z,4.07
2022-11-15T11:10:49.909Z,2.70
2022-11-15T11:13:25.391Z,4.10
2022-11-15T11:16:14.661Z,2.87
2022-11-15T11:18:44.044Z,3.57
2022-11-15T11:21:14.432Z,2.93
2022-11-15T11:24:00.554Z,7.73
2022-11-15T11:26:43.075Z,4.70
2022-11-15T11:29:26.373Z,4.20
2022-11-15T11:31:52.801Z,5.27
2022-11-15T11:34:38.956Z,2.90
2022-11-15T11:37:43.736Z,3.83
2022-11-15T11:40:14.474Z,4.77
2022-11-15T11:42:48.110Z,5.60
2022-11-15T11:45:17.590Z,4.60
2022-11-15T11:48:09.216Z,5.90
2022-11-15T11:50:38.728Z,11.73
2022-11-15T11:53:26.292Z,5.53
2022-11-15T11:56:02.758Z,5.50
2022-11-15T11:58:36.765Z,4.43
2022-11-15T12:01:13.243Z,3.17
2022-11-15T12:03:46.661Z,2.37
2022-11-15T12:06:25.560Z,2.90
2022-11-15T12:09:01.080Z,4.53
2022-11-15T12:12:05.351Z,3.40
2022-11-15T12:14:44.004Z,3.80
2022-11-15T12:17:14.454Z,3.83
2022-11-15T12:19:43.615Z,3.17
2022-11-15T12:22:14.176Z,4.53
2022-11-15T12:24:49.865Z,4.10
2022-11-15T12:27:28.655Z,3.30
2022-11-15T12:30:03.647Z,3.90
2022-11-15T12:32:36.265Z,4.27
2022-11-15T12:35:06.301Z,2.83
2022-11-15T12:37:45.410Z,4.37
2022-11-15T12:40:22.520Z,3.50
2022-11-15T12:43:14.896Z,3.87
2022-11-15T12:45:43.762Z,4.20
2022-11-15T12:48:19.220Z,4.83
2022-11-15T12:51:04.251Z,3.30
2022-11-15T12:53:35.928Z,6.30
2022-11-15T12:56:05.310Z,6.03
2022-11-15T12:58:54.892Z,3.37
2022-11-15T13:01:34.873Z,3.03
2022-11-15T13:04:20.252Z,4.40
2022-11-15T13:06:48.393Z,5.50
2022-11-15T13:09:30.073Z,4.03
2022-11-15T13:11:57.845Z,4.67
2022-11-15T13:14:44.386Z,3.70
2022-11-15T13:17:19.922Z,3.07
2022-11-15T13:19:58.115Z,3.37
2022-11-15T13:22:43.285Z,3.00
2022-11-15T13:25:17.125Z,5.13
2022-11-15T13:27:43.620Z,2.47
2022-11-15T13:30:21.778Z,2.97
2022-11-15T13:32:49.580Z,3.50
2022-11-15T13:35:24.886Z,3.23
2022-11-15T13:37:52.783Z,3.33
2022-11-15T13:40:31.393Z,2.70
2022-11-15T13:42:59.207Z,2.90
2022-11-15T13:45:27.239Z,1.93
2022-11-15T13:47:58.419Z,3.03
2022-11-15T13:50:31.888Z,2.13
2022-11-15T13:53:02.285Z,2.57
2022-11-15T13:55:30.152Z,3.20
2022-11-15T13:58:00.451Z,1.97
2022-11-15T14:00:46.396Z,3.37
2022-11-15T14:03:23.079Z,3.70
2022-11-15T14:06:08.554Z,1.70
2022-11-15T14:08:36.151Z,5.70
2022-11-15T14:11:21.350Z,3.53
2022-11-15T14:14:09.175Z,2.87
2022-11-15T14:16:47.902Z,4.73
2022-11-15T14:19:35.719Z,3.47
2022-11-15T14:22:10.283Z,5.40
2022-11-15T14:24:37.391Z,2.57
2022-11-15T14:27:26.770Z,3.63
2022-11-15T14:29:54.121Z,2.77
2022-11-15T14:32:26.823Z,2.97
2022-11-15T14:34:59.196Z,4.17
2022-11-15T14:37:29.625Z,2.93
2022-11-15T14:39:56.502Z,4.83
2022-11-15T14:42:24.211Z,2.60
2022-11-15T14:44:51.060Z,2.87
2022-11-15T14:47:18.107Z,2.60
2022-11-15T14:49:44.979Z,3.23
2022-11-15T14:52:32.184Z,4.43
2022-11-15T14:55:00.799Z,3.73
2022-11-15T14:57:27.387Z,2.90
2022-11-15T14:59:54.046Z,3.77
2022-11-15T15:02:25.815Z,2.20
2022-11-15T15:04:52.427Z,2.80
2022-11-15T15:07:19.299Z,2.40
2022-11-15T15:09:46.319Z,4.53
2022-11-15T15:12:18.477Z,2.83
2022-11-15T15:14:45.678Z,3.13
2022-11-15T15:17:12.195Z,4.80
2022-11-15T15:19:38.728Z,3.93
2022-11-15T15:22:05.523Z,3.50
2022-11-15T15:24:31.897Z,3.73
2022-11-15T15:26:58.380Z,2.87
2022-11-15T15:29:24.769Z,2.60
2022-11-15T15:31:51.216Z,3.80
2022-11-15T15:34:17.718Z,2.80
2022-11-15T15:36:44.171Z,2.53
2022-11-15T15:39:12.340Z,2.40
2022-11-15T15:41:38.722Z,4.63
2022-11-15T15:44:05.176Z,9.20
2022-11-15T15:46:31.578Z,4.80
2022-11-15T15:48:58.078Z,3.67
2022-11-15T15:51:24.506Z,2.77
2022-11-15T15:53:52.574Z,5.40
2022-11-15T15:56:18.951Z,5.67
2022-11-15T15:58:45.427Z,4.17
2022-11-15T16:01:11.874Z,6.67
2022-11-15T16:03:38.352Z,4.10
2022-11-15T16:06:06.035Z,5.00
2022-11-15T16:08:47.764Z,5.90
2022-11-15T16:11:18.883Z,3.07
2022-11-15T16:13:45.371Z,4.40
2022-11-15T16:16:14.591Z,4.80
2022-11-15T16:18:41.005Z,4.00
2022-11-15T16:21:09.356Z,3.73
2022-11-15T16:23:35.783Z,5.70
2022-11-15T16:26:04.056Z,3.33
2022-11-15T16:28:32.904Z,3.50
2022-11-15T16:31:04.976Z,2.90
2022-11-15T16:33:32.424Z,3.17
2022-11-15T16:35:59.251Z,3.10
2022-11-15T16:38:25.788Z,3.20
2022-11-15T16:40:52.287Z,3.27
2022-11-15T16:43:18.761Z,4.10
2022-11-15T16:45:45.409Z,3.27
2022-11-15T16:48:26.665Z,4.20
2022-11-15T16:50:58.211Z,7.00
2022-11-15T16:53:28.210Z,3.77
2022-11-15T16:55:58.043Z,5.60
2022-11-15T16:58:25.051Z,4.80
2022-11-15T17:00:55.752Z,4.57
2022-11-15T17:03:24.475Z,9.07
2022-11-15T17:05:51.778Z,7.60
2022-11-15T17:08:20.841Z,6.80
2022-11-15T17:10:47.331Z,6.10
2022-11-15T17:13:14.102Z,6.40
2022-11-15T17:15:40.505Z,6.40
2022-11-15T17:18:06.973Z,4.47
2022-11-15T17:20:33.633Z,4.23
2022-11-15T17:23:00.097Z,3.83
2022-11-15T17:25:26.507Z,5.30
2022-11-15T17:27:53.307Z,8.80
2022-11-15T17:30:20.313Z,5.17
2022-11-15T17:32:49.919Z,7.70
2022-11-15T17:35:16.488Z,4.73
2022-11-15T17:37:43.561Z,4.87
2022-11-15T17:40:10.513Z,4.57
2022-11-15T17:42:36.944Z,4.50
2022-11-15T17:45:09.357Z,4.00
2022-11-15T17:47:36.723Z,6.63
2022-11-15T17:50:03.247Z,6.03
2022-11-15T17:52:29.718Z,5.07
2022-11-15T17:54:56.075Z,6.67
2022-11-15T17:57:22.455Z,5.80
2022-11-15T17:59:48.985Z,4.63
2022-11-15T18:02:15.425Z,4.10
2022-11-15T18:04:41.939Z,6.17
2022-11-15T18:07:08.507Z,4.20
2022-11-15T18:09:34.964Z,5.20
2022-11-15T18:12:01.534Z,5.53
2022-11-15T18:14:27.975Z,5.03
2022-11-15T18:16:54.998Z,4.57
2022-11-15T18:19:22.559Z,4.37
2022-11-15T18:21:57.746Z,5.13
2022-11-15T18:24:29.797Z,4.87
2022-11-15T18:26:57.719Z,4.50
2022-11-15T18:29:24.858Z,6.80
2022-11-15T18:31:55.424Z,3.93
2022-11-15T18:34:23.933Z,6.70
2022-11-15T18:36:53.534Z,4.37
2022-11-15T18:39:20.789Z,4.50
2022-11-15T18:41:47.946Z,4.30
2022-11-15T18:44:15.160Z,5.60
2022-11-15T18:46:42.275Z,5.07
2022-11-15T18:49:10.594Z,5.33
2022-11-15T18:51:43.604Z,6.77
2022-11-15T18:54:11.799Z,5.27
2022-11-15T18:56:39.002Z,6.50
2022-11-15T18:59:06.299Z,7.03
2022-11-15T19:01:43.960Z,5.43
2022-11-15T19:04:13.153Z,5.60
2022-11-15T19:06:42.223Z,5.97
2022-11-15T19:09:10.400Z,6.83
2022-11-15T19:11:39.513Z,6.13
2022-11-15T19:14:11.463Z,5.80
2022-11-15T19:16:44.510Z,5.90
2022-11-15T19:19:14.558Z,7.10
2022-11-15T19:21:41.670Z,6.37
2022-11-15T19:24:08.379Z,4.90
2022-11-15T19:26:37.715Z,10.70
2022-11-15T19:29:05.456Z,12.73
2022-11-15T19:31:32.668Z,17.10
2022-11-15T19:34:04.583Z,7.53
2022-11-15T19:36:34.292Z,7.20
2022-11-15T19:39:08.156Z,8.80
2022-11-15T19:41:36.074Z,6.03
2022-11-15T19:44:02.638Z,6.80
2022-11-15T19:46:29.079Z,9.03
2022-11-15T19:48:55.463Z,6.80
2022-11-15T19:51:27.399Z,7.23
2022-11-15T19:53:56.121Z,5.27
2022-11-15T19:56:22.896Z,5.20
2022-11-15T19:58:54.155Z,5.53
2022-11-15T20:01:24.169Z,7.43
2022-11-15T20:03:54.476Z,5.07
2022-11-15T20:06:26.709Z,7.00
2022-11-15T20:08:53.207Z,4.87
2022-11-15T20:11:20.305Z,5.07
2022-11-15T20:13:47.004Z,6.10
2022-11-15T20:16:19.730Z,4.27
2022-11-15T20:18:47.386Z,5.80
2022-11-15T20:21:14.203Z,5.27
2022-11-15T20:23:41.101Z,5.67
2022-11-15T20:26:08.602Z,4.43
2022-11-15T20:28:36.591Z,6.20
2022-11-15T20:31:03.153Z,4.10
2022-11-15T20:33:29.613Z,5.50
2022-11-15T20:35:55.998Z,4.20
2022-11-15T20:38:23.194Z,5.30
2022-11-15T20:40:51.965Z,5.57
2022-11-15T20:43:21.116Z,5.20
2022-11-15T20:45:50.273Z,7.80
2022-11-15T20:48:17.649Z,6.20
2022-11-15T20:50:45.993Z,6.10
2022-11-15T20:53:15.357Z,5.10
2022-11-15T20:55:44.209Z,6.53
2022-11-15T20:58:11.529Z,6.67
2022-11-15T21:00:38.669Z,5.40
2022-11-15T21:03:08.203Z,4.97
2022-11-15T21:05:39.051Z,5.07
2022-11-15T21:08:06.208Z,5.63
2022-11-15T21:10:51.493Z,6.80
2022-11-15T21:13:18.005Z,4.60
2022-11-15T21:15:44.380Z,4.80
2022-11-15T21:18:10.885Z,7.70
2022-11-15T21:20:37.541Z,6.13
2022-11-15T21:23:03.974Z,7.13
2022-11-15T21:25:30.502Z,6.27
2022-11-15T21:27:56.926Z,5.20
2022-11-15T21:30:23.385Z,5.10
2022-11-15T21:32:49.909Z,5.07
2022-11-15T21:35:16.496Z,4.37
2022-11-15T21:37:42.963Z,5.50
2022-11-15T21:40:10.247Z,4.80
2022-11-15T21:42:37.058Z,5.77
2022-11-15T21:45:03.821Z,6.67
2022-11-15T21:47:30.256Z,6.37
2022-11-15T21:49:56.666Z,6.67
2022-11-15T21:52:23.073Z,5.50
2022-11-15T21:54:49.428Z,5.53
2022-11-15T21:57:15.861Z,5.60
2022-11-15T22:00:02.214Z,6.07
2022-11-15T22:02:28.625Z,6.30
2022-11-15T22:04:55.006Z,6.63
2022-11-15T22:07:21.568Z,11.37
2022-11-15T22:09:48.009Z,21.07
2022-11-15T22:12:14.410Z,16.90
2022-11-15T22:14:40.780Z,7.80
2022-11-15T22:17:13.315Z,6.93
2022-11-15T22:19:51.900Z,8.33
2022-11-15T22:22:18.988Z,7.30
2022-11-15T22:24:45.363Z,10.40
2022-11-15T22:27:11.790Z,8.90
2022-11-15T22:29:38.267Z,11.00
2022-11-15T22:32:04.766Z,9.47
2022-11-15T22:34:31.224Z,8.40
2022-11-15T22:39:45.200Z,7.60
2022-11-15T22:42:11.625Z,8.10
2022-11-15T22:44:38.133Z,7.27
2022-11-15T22:47:04.587Z,8.27
2022-11-15T22:49:31.023Z,6.87
2022-11-15T22:51:57.454Z,7.40
2022-11-15T22:54:23.903Z,12.27
2022-11-15T22:56:50.306Z,7.63
2022-11-15T22:59:16.730Z,6.33
2022-11-15T23:01:43.168Z,7.23
2022-11-15T23:04:09.602Z,8.07
2022-11-15T23:06:36.127Z,7.67
2022-11-15T23:09:02.579Z,12.03
2022-11-15T23:11:47.351Z,8.00
2022-11-15T23:14:13.791Z,7.67
2022-11-15T23:16:40.513Z,7.90
2022-11-15T23:19:09.986Z,7.47
2022-11-15T23:21:57.283Z,7.00
2022-11-15T23:24:24.186Z,7.17
2022-11-15T23:26:53.602Z,7.13
2022-11-15T23:29:22.941Z,7.53
2022-11-15T23:32:08.098Z,8.00
2022-11-15T23:34:40.128Z,7.77
2022-11-15T23:37:08.310Z,6.97
2022-11-15T23:39:34.791Z,8.03
2022-11-15T23:42:07.503Z,8.43
2022-11-15T23:44:35.116Z,7.67
2022-11-15T23:47:01.556Z,8.90
2022-11-15T23:49:27.955Z,8.37
2022-11-15T23:51:54.436Z,9.07
2022-11-15T23:54:20.838Z,9.70
2022-11-15T23:56:47.271Z,8.90
2022-11-15T23:59:13.717Z,10.43
